createdAt,value
2019-02-26T08:44:21.576Z,103319.73
2019-02-26T08:47:26.823Z,103319.73
2019-02-26T08:50:44.459Z,103315.67
2019-02-26T08:53:50.010Z,103319.38
2019-02-26T08:56:54.926Z,103316.72
2019-02-26T08:59:58.808Z,103309.87
2019-02-26T09:03:02.725Z,103326.14
2019-02-26T09:06:12.699Z,103318.42
2019-02-26T09:09:12.411Z,103316.36
2019-02-26T09:12:17.487Z,103310.16
2019-02-26T09:15:22.162Z,103305.59
2019-02-26T09:18:28.133Z,103309.53
2019-02-26T09:21:31.726Z,103301.83
2019-02-26T09:24:35.571Z,103298.41
2019-02-26T09:27:43.034Z,103302.09
2019-02-26T09:30:45.197Z,103302.16
2019-02-26T09:33:49.039Z,103310.11
2019-02-26T09:36:55.553Z,103314.45
2019-02-26T09:39:59.337Z,103316.82
2019-02-26T09:43:06.060Z,103318.22
2019-02-26T09:46:14.438Z,103322.78
2019-02-26T09:49:20.042Z,103321.61
2019-02-26T09:52:27.540Z,103319.15
2019-02-26T09:55:29.893Z,103322.25
2019-02-26T09:58:40.364Z,103321.33
2019-02-26T10:01:45.245Z,103320.47
2019-02-26T10:04:49.546Z,103326.33
2019-02-26T10:07:57.154Z,103324.97
2019-02-26T10:11:02.253Z,103322.42
2019-02-26T10:14:07.800Z,103323.98
2019-02-26T10:17:13.796Z,103326.33
2019-02-26T10:20:20.725Z,103321.98
2019-02-26T10:23:26.260Z,103320.10
2019-02-26T10:26:30.775Z,103320.66
2019-02-26T10:29:37.369Z,103329.20
2019-02-26T10:32:41.251Z,103327.25
2019-02-26T10:35:47.442Z,103334.20
2019-02-26T10:38:52.754Z,103330.81
2019-02-26T10:41:56.483Z,103329.03
2019-02-26T10:45:00.303Z,103330.11
2019-02-26T10:48:04.315Z,103336.38
2019-02-26T10:51:08.153Z,103331.28
2019-02-26T10:54:15.487Z,103329.56
2019-02-26T10:57:17.514Z,103341.02
2019-02-26T11:00:28.137Z,103342.16
2019-02-26T11:03:35.482Z,103348.68
2019-02-26T11:06:39.723Z,103349.18
2019-02-26T11:09:44.722Z,103354.31
2019-02-26T11:12:54.433Z,103345.02
2019-02-26T11:16:03.784Z,103344.22
2019-02-26T11:19:13.498Z,103338.34
2019-02-26T11:22:27.990Z,103336.86
2019-02-26T11:25:37.081Z,103322.19
2019-02-26T11:28:51.204Z,103337.52
2019-02-26T11:31:56.059Z,103328.02
2019-02-26T11:35:02.434Z,103325.97
2019-02-26T11:38:05.686Z,103325.45
2019-02-26T11:41:09.534Z,103326.65
2019-02-26T11:44:19.028Z,103321.66
2019-02-26T11:47:20.630Z,103317.35
2019-02-26T11:50:28.161Z,103323.54
2019-02-26T11:53:30.400Z,103317.34
2019-02-26T11:56:34.144Z,103310.53
2019-02-26T11:59:40.289Z,103302.69
2019-02-26T12:02:44.005Z,103296.75
2019-02-26T12:05:47.898Z,103295.44
2019-02-26T12:08:51.737Z,103295.22
2019-02-26T12:11:56.005Z,103301.47
2019-02-26T12:15:04.130Z,103307.19
2019-02-26T12:18:07.078Z,103308.94
2019-02-26T12:21:12.911Z,103309.39
2019-02-26T12:24:16.623Z,103314.85
2019-02-26T12:27:21.541Z,103309.89
2019-02-26T12:30:26.159Z,103306.84
2019-02-26T12:33:32.501Z,103301.99
2019-02-26T12:36:35.704Z,103304.63
2019-02-26T12:39:39.527Z,103301.53
2019-02-26T12:42:43.386Z,103303.33
2019-02-26T12:45:47.371Z,103307.28
2019-02-26T12:48:51.277Z,103313.55
2019-02-26T12:51:56.790Z,103304.80
2019-02-26T12:55:04.302Z,103304.82
2019-02-26T12:58:06.297Z,103298.88
2019-02-26T13:01:10.106Z,103293.55
2019-02-26T13:04:16.676Z,103289.56
2019-02-26T13:07:19.492Z,103278.08
2019-02-26T13:10:23.526Z,103267.97
2019-02-26T13:13:27.416Z,103260.47
2019-02-26T13:16:31.405Z,103260.48
2019-02-26T13:19:37.106Z,103248.92
2019-02-26T13:22:45.670Z,103252.50
2019-02-26T13:25:46.871Z,103254.28
2019-02-26T13:28:52.946Z,103250.70
2019-02-26T13:31:59.675Z,103252.44
2019-02-26T13:35:07.458Z,103240.81
2019-02-26T13:38:07.582Z,103239.05
2019-02-26T13:41:28.822Z,103243.53
2019-02-26T13:44:17.114Z,103230.67
2019-02-26T13:47:21.115Z,103233.80
2019-02-26T13:50:26.528Z,103240.04
2019-02-26T13:53:30.479Z,103247.59
2019-02-26T13:56:34.319Z,103245.38
2019-02-26T13:59:38.390Z,103242.70
2019-02-26T14:02:42.638Z,103238.70
2019-02-26T14:05:46.623Z,103239.60
2019-02-26T14:08:50.536Z,103247.59
2019-02-26T14:11:54.462Z,103241.77
2019-02-26T14:14:58.571Z,103236.47
2019-02-26T14:18:02.370Z,103236.05
2019-02-26T14:21:06.218Z,103233.86
2019-02-26T14:24:10.105Z,103222.73
2019-02-26T14:27:14.052Z,103216.13
2019-02-26T14:30:18.063Z,103217.91
2019-02-26T14:33:21.917Z,103216.52
2019-02-26T14:36:25.959Z,103215.68
2019-02-26T14:39:29.876Z,103218.75
2019-02-26T14:42:33.811Z,103214.30
2019-02-26T14:45:37.645Z,103213.87
2019-02-26T14:48:41.524Z,103213.39
2019-02-26T14:51:45.480Z,103210.75
2019-02-26T14:54:49.414Z,103208.94
2019-02-26T14:57:53.275Z,103206.27
2019-02-26T15:01:00.398Z,103198.28
2019-02-26T15:04:04.442Z,103211.15
2019-02-26T15:07:08.264Z,103196.06
2019-02-26T15:10:12.291Z,103190.73
2019-02-26T15:13:16.114Z,103189.41
2019-02-26T15:16:19.936Z,103180.03
2019-02-26T15:19:24.577Z,103184.89
2019-02-26T15:22:28.653Z,103194.63
2019-02-26T15:25:32.622Z,103188.83
2019-02-26T15:28:36.536Z,103187.52
2019-02-26T15:31:40.429Z,103183.94
2019-02-26T15:34:44.368Z,103187.93
2019-02-26T15:37:48.435Z,103197.65
2019-02-26T15:40:53.324Z,103190.05
2019-02-26T15:43:57.413Z,103190.86
2019-02-26T15:47:02.416Z,103193.53
2019-02-26T15:50:08.946Z,103192.58
2019-02-26T15:53:13.337Z,103197.83
2019-02-26T15:56:17.398Z,103198.70
2019-02-26T15:59:21.205Z,103195.93
2019-02-26T16:02:25.996Z,103191.36
2019-02-26T16:05:30.838Z,103194.87
2019-02-26T16:08:35.100Z,103192.16
2019-02-26T16:11:39.008Z,103197.42
2019-02-26T16:14:42.970Z,103194.20
2019-02-26T16:17:46.875Z,103201.62
2019-02-26T16:20:50.796Z,103203.28
2019-02-26T16:23:54.635Z,103196.52
2019-02-26T16:26:58.539Z,103199.98
2019-02-26T16:30:02.484Z,103186.98
2019-02-26T16:33:06.374Z,103186.80
2019-02-26T16:36:10.269Z,103195.94
2019-02-26T16:39:14.222Z,103193.96
2019-02-26T16:42:18.159Z,103200.35
2019-02-26T16:45:22.331Z,103202.78
2019-02-26T16:48:26.305Z,103201.69
2019-02-26T16:51:30.299Z,103209.03
2019-02-26T16:54:34.236Z,103205.67
2019-02-26T16:57:38.218Z,103199.34
2019-02-26T17:00:42.169Z,103202.23
2019-02-26T17:03:46.108Z,103203.24
2019-02-26T17:06:51.534Z,103204.79
2019-02-26T17:09:56.307Z,103204.55
2019-02-26T17:13:02.432Z,103210.47
2019-02-26T17:16:06.389Z,103211.18
2019-02-26T17:19:10.628Z,103216.27
2019-02-26T17:22:14.461Z,103212.55
2019-02-26T17:25:18.448Z,103213.25
2019-02-26T17:28:22.358Z,103212.94
2019-02-26T17:31:28.715Z,103202.15
2019-02-26T17:34:32.013Z,103207.20
2019-02-26T17:37:35.948Z,103205.08
2019-02-26T17:40:39.838Z,103209.20
2019-02-26T17:43:43.759Z,103201.83
2019-02-26T17:46:47.638Z,103202.37
2019-02-26T17:49:51.529Z,103204.38
2019-02-26T17:52:55.439Z,103199.75
2019-02-26T17:55:59.588Z,103203.98
2019-02-26T17:59:03.534Z,103206.83
2019-02-26T18:02:07.417Z,103201.76
2019-02-26T18:05:11.479Z,103203.38
2019-02-26T18:08:18.844Z,103200.95
2019-02-26T18:11:23.703Z,103197.58
2019-02-26T18:14:26.677Z,103205.66
2019-02-26T18:17:30.527Z,103201.95
2019-02-26T18:20:34.532Z,103204.38
2019-02-26T18:23:38.446Z,103198.95
2019-02-26T18:26:42.340Z,103199.52
2019-02-26T18:29:46.169Z,103186.03
2019-02-26T18:32:50.789Z,103193.25
2019-02-26T18:35:55.673Z,103197.77
2019-02-26T18:38:59.590Z,103203.27
2019-02-26T18:42:07.617Z,103199.46
2019-02-26T18:45:12.730Z,103193.48
2019-02-26T18:48:16.699Z,103197.20
2019-02-26T18:51:20.603Z,103200.97
2019-02-26T18:54:24.478Z,103192.89
2019-02-26T18:57:28.550Z,103195.31
2019-02-26T19:00:32.440Z,103192.52
2019-02-26T19:03:36.241Z,103186.23
2019-02-26T19:06:40.126Z,103190.86
2019-02-26T19:09:45.003Z,103191.63
2019-02-26T19:12:49.550Z,103182.22
2019-02-26T19:15:53.362Z,103187.33
2019-02-26T19:18:57.201Z,103188.49
2019-02-26T19:22:01.000Z,103184.38
2019-02-26T19:25:06.885Z,103180.78
2019-02-26T19:28:11.065Z,103186.66
2019-02-26T19:31:14.897Z,103187.25
2019-02-26T19:34:18.823Z,103181.36
2019-02-26T19:37:22.725Z,103175.97
2019-02-26T19:40:30.477Z,103171.89
2019-02-26T19:43:34.404Z,103168.66
2019-02-26T19:46:38.273Z,103169.13
2019-02-26T19:49:42.174Z,103169.16
2019-02-26T19:52:46.071Z,103164.71
2019-02-26T19:55:50.123Z,103166.27
2019-02-26T19:58:53.977Z,103161.65
2019-02-26T20:01:59.023Z,103152.72
2019-02-26T20:05:03.552Z,103150.77
2019-02-26T20:08:07.638Z,103153.33
2019-02-26T20:11:11.519Z,103149.22
2019-02-26T20:14:21.295Z,103142.04
2019-02-26T20:17:20.944Z,103143.48
2019-02-26T20:20:26.177Z,103142.17
2019-02-26T20:23:30.724Z,103145.27
2019-02-26T20:26:34.880Z,103143.59
2019-02-26T20:29:39.244Z,103140.55
2019-02-26T20:32:44.609Z,103134.35
2019-02-26T20:35:48.713Z,103133.14
2019-02-26T20:38:52.833Z,103120.36
2019-02-26T20:41:56.670Z,103118.11
2019-02-26T20:45:00.730Z,103113.92
2019-02-26T20:48:04.971Z,103108.50
2019-02-26T20:51:09.350Z,103106.78
2019-02-26T20:54:14.320Z,103106.17
2019-02-26T20:57:18.583Z,103098.28
2019-02-26T21:00:25.229Z,103095.55
2019-02-26T21:03:28.442Z,103090.83
2019-02-26T21:06:34.011Z,103094.53
2019-02-26T21:09:41.056Z,103102.20
2019-02-26T21:12:43.701Z,103104.65
2019-02-26T21:15:48.046Z,103102.20
2019-02-26T21:18:52.305Z,103100.72
2019-02-26T21:21:56.097Z,103105.45
2019-02-26T21:25:00.044Z,103105.28
2019-02-26T21:28:04.093Z,103104.59
2019-02-26T21:31:08.090Z,103106.37
2019-02-26T21:34:11.910Z,103113.08
2019-02-26T21:37:15.877Z,103110.26
2019-02-26T21:40:19.904Z,103105.38
2019-02-26T21:43:23.896Z,103103.59
2019-02-26T21:46:27.846Z,103093.42
2019-02-26T21:49:31.737Z,103096.41
2019-02-26T21:52:35.641Z,103094.50
2019-02-26T21:55:44.329Z,103097.48
2019-02-26T21:58:46.252Z,103094.03
2019-02-26T22:01:50.219Z,103088.67
2019-02-26T22:04:54.103Z,103080.14
2019-02-26T22:07:57.960Z,103080.42
2019-02-26T22:11:01.845Z,103076.34
2019-02-26T22:14:05.819Z,103077.45
2019-02-26T22:17:09.784Z,103067.69
2019-02-26T22:20:23.418Z,103069.68
2019-02-26T22:23:19.961Z,103071.71
2019-02-26T22:26:25.925Z,103073.27
